sensor_id;sensor_type;location;lat;lon;timestamp;P1;durP1;ratioP1;P2;durP2;ratioP2
13208;SDS011;6669;42.678;23.332;2023-04-03T00:01:22;2.40;;;2.00;;
13208;SDS011;6669;42.678;23.332;2023-04-03T00:03:50;2.50;;;1.87;;
13208;SDS011;6669;42.678;23.332;2023-04-03T00:06:20;2.27;;;1.90;;
13208;SDS011;6669;42.678;23.332;2023-04-03T00:08:48;1.80;;;1.60;;
13208;SDS011;6669;42.678;23.332;2023-04-03T00:11:16;2.07;;;1.70;;
13208;SDS011;6669;42.678;23.332;2023-04-03T00:13:44;3.23;;;2.30;;
13208;SDS011;6669;42.678;23.332;2023-04-03T00:16:12;3.30;;;2.10;;
13208;SDS011;6669;42.678;23.332;2023-04-03T00:18:41;1.70;;;1.60;;
13208;SDS011;6669;42.678;23.332;2023-04-03T00:21:10;1.83;;;1.60;;
13208;SDS011;6669;42.678;23.332;2023-04-03T00:23:42;2.90;;;2.13;;
13208;SDS011;6669;42.678;23.332;2023-04-03T00:26:10;3.43;;;2.40;;
13208;SDS011;6669;42.678;23.332;2023-04-03T00:28:38;3.30;;;2.60;;
13208;SDS011;6669;42.678;23.332;2023-04-03T00:31:06;3.17;;;2.50;;
13208;SDS011;6669;42.678;23.332;2023-04-03T00:33:34;3.70;;;2.40;;
13208;SDS011;6669;42.678;23.332;2023-04-03T00:36:05;3.67;;;2.67;;
13208;SDS011;6669;42.678;23.332;2023-04-03T00:38:34;4.13;;;2.43;;
13208;SDS011;6669;42.678;23.332;2023-04-03T00:41:03;4.40;;;2.83;;
13208;SDS011;6669;42.678;23.332;2023-04-03T00:43:31;4.50;;;2.80;;
13208;SDS011;6669;42.678;23.332;2023-04-03T00:46:00;4.73;;;2.53;;
13208;SDS011;6669;42.678;23.332;2023-04-03T00:48:29;3.40;;;2.50;;
13208;SDS011;6669;42.678;23.332;2023-04-03T00:51:00;2.87;;;2.50;;
13208;SDS011;6669;42.678;23.332;2023-04-03T00:53:30;2.67;;;2.43;;
13208;SDS011;6669;42.678;23.332;2023-04-03T00:56:01;5.57;;;2.60;;
13208;SDS011;6669;42.678;23.332;2023-04-03T00:58:35;3.40;;;2.83;;
13208;SDS011;6669;42.678;23.332;2023-04-03T01:01:08;4.63;;;2.83;;
13208;SDS011;6669;42.678;23.332;2023-04-03T01:03:42;3.27;;;2.60;;
13208;SDS011;6669;42.678;23.332;2023-04-03T01:06:10;5.33;;;2.50;;
13208;SDS011;6669;42.678;23.332;2023-04-03T01:08:38;5.40;;;2.63;;
13208;SDS011;6669;42.678;23.332;2023-04-03T01:11:06;3.80;;;2.80;;
13208;SDS011;6669;42.678;23.332;2023-04-03T01:13:35;4.53;;;3.40;;
13208;SDS011;6669;42.678;23.332;2023-04-03T01:16:04;8.03;;;4.00;;
13208;SDS011;6669;42.678;23.332;2023-04-03T01:18:33;8.00;;;4.40;;
13208;SDS011;6669;42.678;23.332;2023-04-03T01:24:20;4.50;;;3.93;;
13208;SDS011;6669;42.678;23.332;2023-04-03T01:26:55;7.23;;;3.90;;
13208;SDS011;6669;42.678;23.332;2023-04-03T01:29:24;4.83;;;3.30;;
13208;SDS011;6669;42.678;23.332;2023-04-03T01:31:54;3.67;;;3.00;;
13208;SDS011;6669;42.678;23.332;2023-04-03T01:34:24;2.80;;;2.10;;
13208;SDS011;6669;42.678;23.332;2023-04-03T01:36:53;3.47;;;2.67;;
13208;SDS011;6669;42.678;23.332;2023-04-03T01:39:21;3.70;;;2.27;;
13208;SDS011;6669;42.678;23.332;2023-04-03T01:41:50;3.13;;;2.67;;
13208;SDS011;6669;42.678;23.332;2023-04-03T01:44:18;2.87;;;2.10;;
13208;SDS011;6669;42.678;23.332;2023-04-03T01:46:46;4.53;;;2.27;;
13208;SDS011;6669;42.678;23.332;2023-04-03T01:49:15;2.23;;;2.03;;
13208;SDS011;6669;42.678;23.332;2023-04-03T01:51:43;2.10;;;1.90;;
13208;SDS011;6669;42.678;23.332;2023-04-03T01:54:11;5.40;;;2.00;;
13208;SDS011;6669;42.678;23.332;2023-04-03T01:56:39;2.57;;;2.37;;
13208;SDS011;6669;42.678;23.332;2023-04-03T01:59:07;3.07;;;2.20;;
13208;SDS011;6669;42.678;23.332;2023-04-03T02:01:35;3.40;;;2.00;;
13208;SDS011;6669;42.678;23.332;2023-04-03T02:04:03;3.27;;;2.30;;
13208;SDS011;6669;42.678;23.332;2023-04-03T02:06:33;2.53;;;2.17;;
13208;SDS011;6669;42.678;23.332;2023-04-03T02:09:01;2.47;;;2.20;;
13208;SDS011;6669;42.678;23.332;2023-04-03T02:11:29;3.07;;;2.30;;
13208;SDS011;6669;42.678;23.332;2023-04-03T02:13:57;3.10;;;2.40;;
13208;SDS011;6669;42.678;23.332;2023-04-03T02:16:25;3.07;;;2.47;;
13208;SDS011;6669;42.678;23.332;2023-04-03T02:18:53;3.30;;;2.30;;
13208;SDS011;6669;42.678;23.332;2023-04-03T02:21:21;3.40;;;2.60;;
13208;SDS011;6669;42.678;23.332;2023-04-03T02:23:50;6.50;;;2.50;;
13208;SDS011;6669;42.678;23.332;2023-04-03T02:26:18;3.43;;;2.80;;
13208;SDS011;6669;42.678;23.332;2023-04-03T02:28:46;2.77;;;2.10;;
13208;SDS011;6669;42.678;23.332;2023-04-03T02:31:14;3.23;;;2.80;;
13208;SDS011;6669;42.678;23.332;2023-04-03T02:33:42;4.23;;;2.77;;
13208;SDS011;6669;42.678;23.332;2023-04-03T02:36:10;3.47;;;2.53;;
13208;SDS011;6669;42.678;23.332;2023-04-03T02:38:38;4.27;;;2.80;;
13208;SDS011;6669;42.678;23.332;2023-04-03T02:41:08;3.17;;;2.73;;
13208;SDS011;6669;42.678;23.332;2023-04-03T02:43:37;3.00;;;2.50;;
13208;SDS011;6669;42.678;23.332;2023-04-03T02:46:06;3.73;;;2.93;;
13208;SDS011;6669;42.678;23.332;2023-04-03T02:48:34;4.07;;;2.80;;
13208;SDS011;6669;42.678;23.332;2023-04-03T02:51:02;3.67;;;2.70;;
13208;SDS011;6669;42.678;23.332;2023-04-03T02:53:30;3.90;;;3.00;;
13208;SDS011;6669;42.678;23.332;2023-04-03T02:55:58;5.77;;;3.40;;
13208;SDS011;6669;42.678;23.332;2023-04-03T02:58:28;3.77;;;2.67;;
13208;SDS011;6669;42.678;23.332;2023-04-03T03:00:56;5.07;;;3.27;;
13208;SDS011;6669;42.678;23.332;2023-04-03T03:03:24;4.80;;;3.57;;
13208;SDS011;6669;42.678;23.332;2023-04-03T03:06:00;6.43;;;3.40;;
13208;SDS011;6669;42.678;23.332;2023-04-03T03:08:28;3.87;;;3.20;;
13208;SDS011;6669;42.678;23.332;2023-04-03T03:10:56;5.07;;;4.07;;
13208;SDS011;6669;42.678;23.332;2023-04-03T03:13:24;4.83;;;3.80;;
13208;SDS011;6669;42.678;23.332;2023-04-03T03:15:54;4.37;;;3.50;;
13208;SDS011;6669;42.678;23.332;2023-04-03T03:18:23;6.73;;;4.10;;
13208;SDS011;6669;42.678;23.332;2023-04-03T03:20:51;6.53;;;3.50;;
13208;SDS011;6669;42.678;23.332;2023-04-03T03:23:20;8.53;;;4.03;;
13208;SDS011;6669;42.678;23.332;2023-04-03T03:25:49;3.83;;;3.43;;
13208;SDS011;6669;42.678;23.332;2023-04-03T03:28:21;7.03;;;4.07;;
13208;SDS011;6669;42.678;23.332;2023-04-03T03:30:49;7.60;;;4.10;;
13208;SDS011;6669;42.678;23.332;2023-04-03T03:33:19;7.90;;;4.50;;
13208;SDS011;6669;42.678;23.332;2023-04-03T03:35:47;4.90;;;3.83;;
13208;SDS011;6669;42.678;23.332;2023-04-03T03:38:15;6.33;;;4.80;;
13208;SDS011;6669;42.678;23.332;2023-04-03T03:40:43;4.40;;;3.90;;
13208;SDS011;6669;42.678;23.332;2023-04-03T03:43:10;7.60;;;4.17;;
13208;SDS011;6669;42.678;23.332;2023-04-03T03:45:38;4.60;;;3.90;;
13208;SDS011;6669;42.678;23.332;2023-04-03T03:48:07;4.03;;;3.47;;
13208;SDS011;6669;42.678;23.332;2023-04-03T03:50:37;4.17;;;3.20;;
13208;SDS011;6669;42.678;23.332;2023-04-03T03:53:05;4.37;;;3.50;;
13208;SDS011;6669;42.678;23.332;2023-04-03T03:55:33;4.43;;;3.53;;
13208;SDS011;6669;42.678;23.332;2023-04-03T03:58:01;4.53;;;3.47;;
13208;SDS011;6669;42.678;23.332;2023-04-03T04:00:30;5.87;;;3.67;;
13208;SDS011;6669;42.678;23.332;2023-04-03T04:02:58;4.90;;;4.10;;
13208;SDS011;6669;42.678;23.332;2023-04-03T04:05:27;4.70;;;3.60;;
13208;SDS011;6669;42.678;23.332;2023-04-03T04:07:56;6.00;;;3.80;;
13208;SDS011;6669;42.678;23.332;2023-04-03T04:10:24;4.93;;;4.20;;
13208;SDS011;6669;42.678;23.332;2023-04-03T04:12:52;6.93;;;4.67;;
13208;SDS011;6669;42.678;23.332;2023-04-03T04:15:23;6.20;;;4.73;;
13208;SDS011;6669;42.678;23.332;2023-04-03T04:17:52;7.23;;;4.30;;
13208;SDS011;6669;42.678;23.332;2023-04-03T04:20:20;5.30;;;4.20;;
13208;SDS011;6669;42.678;23.332;2023-04-03T04:22:48;5.10;;;3.93;;
13208;SDS011;6669;42.678;23.332;2023-04-03T04:25:18;5.80;;;4.30;;
13208;SDS011;6669;42.678;23.332;2023-04-03T04:27:46;6.43;;;4.33;;
13208;SDS011;6669;42.678;23.332;2023-04-03T04:30:14;6.17;;;4.47;;
13208;SDS011;6669;42.678;23.332;2023-04-03T04:32:42;6.50;;;4.77;;
13208;SDS011;6669;42.678;23.332;2023-04-03T04:35:10;7.50;;;4.20;;
13208;SDS011;6669;42.678;23.332;2023-04-03T04:37:42;4.57;;;4.03;;
13208;SDS011;6669;42.678;23.332;2023-04-03T04:40:10;7.97;;;4.37;;
13208;SDS011;6669;42.678;23.332;2023-04-03T04:42:39;5.63;;;4.30;;
13208;SDS011;6669;42.678;23.332;2023-04-03T04:45:08;5.10;;;4.13;;
13208;SDS011;6669;42.678;23.332;2023-04-03T04:47:36;5.97;;;4.20;;
13208;SDS011;6669;42.678;23.332;2023-04-03T04:50:05;7.10;;;4.50;;
13208;SDS011;6669;42.678;23.332;2023-04-03T04:52:33;8.27;;;4.60;;
13208;SDS011;6669;42.678;23.332;2023-04-03T04:55:01;7.83;;;4.57;;
13208;SDS011;6669;42.678;23.332;2023-04-03T04:57:29;7.83;;;4.93;;
13208;SDS011;6669;42.678;23.332;2023-04-03T04:59:59;6.83;;;4.80;;
13208;SDS011;6669;42.678;23.332;2023-04-03T05:02:27;5.73;;;4.10;;
13208;SDS011;6669;42.678;23.332;2023-04-03T05:04:55;6.27;;;4.23;;
13208;SDS011;6669;42.678;23.332;2023-04-03T05:07:23;6.87;;;4.47;;
13208;SDS011;6669;42.678;23.332;2023-04-03T05:09:52;6.63;;;4.67;;
13208;SDS011;6669;42.678;23.332;2023-04-03T05:12:19;5.27;;;4.23;;
13208;SDS011;6669;42.678;23.332;2023-04-03T05:14:48;8.90;;;4.60;;
13208;SDS011;6669;42.678;23.332;2023-04-03T05:17:17;18.93;;;11.70;;
13208;SDS011;6669;42.678;23.332;2023-04-03T05:19:45;10.87;;;5.07;;
13208;SDS011;6669;42.678;23.332;2023-04-03T05:22:13;6.27;;;4.27;;
13208;SDS011;6669;42.678;23.332;2023-04-03T05:24:41;8.20;;;4.57;;
13208;SDS011;6669;42.678;23.332;2023-04-03T05:27:09;6.90;;;4.60;;
13208;SDS011;6669;42.678;23.332;2023-04-03T05:29:37;5.73;;;4.30;;
13208;SDS011;6669;42.678;23.332;2023-04-03T05:32:05;6.43;;;4.03;;
13208;SDS011;6669;42.678;23.332;2023-04-03T05:34:35;6.30;;;4.23;;
13208;SDS011;6669;42.678;23.332;2023-04-03T05:37:03;7.13;;;4.63;;
13208;SDS011;6669;42.678;23.332;2023-04-03T05:39:32;11.73;;;4.57;;
13208;SDS011;6669;42.678;23.332;2023-04-03T05:42:00;8.40;;;4.10;;
13208;SDS011;6669;42.678;23.332;2023-04-03T05:44:28;5.50;;;4.30;;
13208;SDS011;6669;42.678;23.332;2023-04-03T05:46:56;7.37;;;4.77;;
13208;SDS011;6669;42.678;23.332;2023-04-03T05:49:24;5.23;;;4.67;;
13208;SDS011;6669;42.678;23.332;2023-04-03T05:51:54;7.23;;;4.70;;
13208;SDS011;6669;42.678;23.332;2023-04-03T05:54:23;5.57;;;4.60;;
13208;SDS011;6669;42.678;23.332;2023-04-03T05:56:52;13.80;;;6.17;;
13208;SDS011;6669;42.678;23.332;2023-04-03T05:59:20;8.40;;;5.47;;
13208;SDS011;6669;42.678;23.332;2023-04-03T06:01:48;8.50;;;6.57;;
13208;SDS011;6669;42.678;23.332;2023-04-03T06:04:17;10.90;;;6.57;;
13208;SDS011;6669;42.678;23.332;2023-04-03T06:06:46;9.83;;;6.70;;
13208;SDS011;6669;42.678;23.332;2023-04-03T06:09:17;7.80;;;6.03;;
13208;SDS011;6669;42.678;23.332;2023-04-03T06:11:46;9.87;;;6.13;;
13208;SDS011;6669;42.678;23.332;2023-04-03T06:14:14;10.07;;;6.10;;
13208;SDS011;6669;42.678;23.332;2023-04-03T06:16:42;9.87;;;6.63;;
13208;SDS011;6669;42.678;23.332;2023-04-03T06:19:12;15.67;;;11.97;;
13208;SDS011;6669;42.678;23.332;2023-04-03T06:21:40;11.37;;;6.00;;
13208;SDS011;6669;42.678;23.332;2023-04-03T06:24:09;9.23;;;6.20;;
13208;SDS011;6669;42.678;23.332;2023-04-03T06:26:41;12.27;;;6.93;;
13208;SDS011;6669;42.678;23.332;2023-04-03T06:29:09;12.53;;;6.67;;
13208;SDS011;6669;42.678;23.332;2023-04-03T06:31:37;15.27;;;6.13;;
13208;SDS011;6669;42.678;23.332;2023-04-03T06:34:06;10.73;;;6.70;;
13208;SDS011;6669;42.678;23.332;2023-04-03T06:36:35;9.47;;;6.50;;
13208;SDS011;6669;42.678;23.332;2023-04-03T06:39:05;12.43;;;7.10;;
13208;SDS011;6669;42.678;23.332;2023-04-03T06:41:33;11.57;;;7.23;;
13208;SDS011;6669;42.678;23.332;2023-04-03T06:44:04;11.37;;;7.17;;
13208;SDS011;6669;42.678;23.332;2023-04-03T06:46:32;12.97;;;7.37;;
13208;SDS011;6669;42.678;23.332;2023-04-03T06:49:00;8.70;;;6.30;;
13208;SDS011;6669;42.678;23.332;2023-04-03T06:51:33;7.70;;;5.87;;
13208;SDS011;6669;42.678;23.332;2023-04-03T06:54:04;8.87;;;6.93;;
13208;SDS011;6669;42.678;23.332;2023-04-03T06:56:34;9.73;;;6.27;;
13208;SDS011;6669;42.678;23.332;2023-04-03T06:59:03;11.00;;;6.87;;
13208;SDS011;6669;42.678;23.332;2023-04-03T07:01:31;10.23;;;7.03;;
13208;SDS011;6669;42.678;23.332;2023-04-03T07:04:00;8.37;;;5.97;;
13208;SDS011;6669;42.678;23.332;2023-04-03T07:06:28;8.30;;;5.77;;
13208;SDS011;6669;42.678;23.332;2023-04-03T07:08:57;9.63;;;6.03;;
13208;SDS011;6669;42.678;23.332;2023-04-03T07:11:25;10.00;;;5.83;;
13208;SDS011;6669;42.678;23.332;2023-04-03T07:13:54;11.23;;;6.07;;
13208;SDS011;6669;42.678;23.332;2023-04-03T07:16:24;8.20;;;5.03;;
13208;SDS011;6669;42.678;23.332;2023-04-03T07:18:52;7.13;;;5.80;;
13208;SDS011;6669;42.678;23.332;2023-04-03T07:21:20;6.70;;;4.23;;
13208;SDS011;6669;42.678;23.332;2023-04-03T07:23:48;3.83;;;3.20;;
13208;SDS011;6669;42.678;23.332;2023-04-03T07:26:17;3.97;;;3.40;;
13208;SDS011;6669;42.678;23.332;2023-04-03T07:28:47;4.83;;;3.87;;
13208;SDS011;6669;42.678;23.332;2023-04-03T07:31:16;5.67;;;3.90;;
13208;SDS011;6669;42.678;23.332;2023-04-03T07:33:46;7.13;;;4.97;;
13208;SDS011;6669;42.678;23.332;2023-04-03T07:36:15;4.27;;;3.30;;
13208;SDS011;6669;42.678;23.332;2023-04-03T07:38:46;5.50;;;3.47;;
13208;SDS011;6669;42.678;23.332;2023-04-03T07:41:14;5.53;;;3.60;;
13208;SDS011;6669;42.678;23.332;2023-04-03T07:43:44;4.30;;;3.70;;
13208;SDS011;6669;42.678;23.332;2023-04-03T07:46:12;6.20;;;4.23;;
13208;SDS011;6669;42.678;23.332;2023-04-03T07:48:41;6.73;;;4.23;;
13208;SDS011;6669;42.678;23.332;2023-04-03T07:51:10;9.50;;;4.50;;
13208;SDS011;6669;42.678;23.332;2023-04-03T07:53:39;12.17;;;7.43;;
13208;SDS011;6669;42.678;23.332;2023-04-03T07:56:07;12.00;;;8.03;;
13208;SDS011;6669;42.678;23.332;2023-04-03T07:58:36;12.47;;;7.63;;
13208;SDS011;6669;42.678;23.332;2023-04-03T08:01:04;12.57;;;8.03;;
13208;SDS011;6669;42.678;23.332;2023-04-03T08:03:32;12.18;;;8.40;;
13208;SDS011;6669;42.678;23.332;2023-04-03T08:06:01;13.83;;;8.00;;
13208;SDS011;6669;42.678;23.332;2023-04-03T08:08:34;10.30;;;8.32;;
13208;SDS011;6669;42.678;23.332;2023-04-03T08:11:02;9.20;;;7.75;;
13208;SDS011;6669;42.678;23.332;2023-04-03T08:13:31;11.87;;;8.67;;
13208;SDS011;6669;42.678;23.332;2023-04-03T08:16:06;13.70;;;7.90;;
13208;SDS011;6669;42.678;23.332;2023-04-03T08:18:35;11.95;;;8.25;;
13208;SDS011;6669;42.678;23.332;2023-04-03T08:21:05;13.48;;;8.20;;
13208;SDS011;6669;42.678;23.332;2023-04-03T08:23:36;10.77;;;7.97;;
13208;SDS011;6669;42.678;23.332;2023-04-03T08:26:05;10.55;;;8.10;;
13208;SDS011;6669;42.678;23.332;2023-04-03T08:28:34;12.60;;;8.40;;
13208;SDS011;6669;42.678;23.332;2023-04-03T08:31:03;13.30;;;8.98;;
13208;SDS011;6669;42.678;23.332;2023-04-03T08:33:33;15.93;;;9.65;;
13208;SDS011;6669;42.678;23.332;2023-04-03T08:36:03;14.85;;;9.15;;
13208;SDS011;6669;42.678;23.332;2023-04-03T08:38:31;12.75;;;9.48;;
13208;SDS011;6669;42.678;23.332;2023-04-03T08:41:04;11.63;;;9.48;;
13208;SDS011;6669;42.678;23.332;2023-04-03T08:43:36;11.02;;;9.25;;
13208;SDS011;6669;42.678;23.332;2023-04-03T08:46:11;14.88;;;9.00;;
13208;SDS011;6669;42.678;23.332;2023-04-03T08:48:44;14.05;;;8.52;;
13208;SDS011;6669;42.678;23.332;2023-04-03T08:51:14;12.57;;;9.13;;
13208;SDS011;6669;42.678;23.332;2023-04-03T08:53:46;13.02;;;9.60;;
13208;SDS011;6669;42.678;23.332;2023-04-03T08:56:24;10.90;;;8.70;;
13208;SDS011;6669;42.678;23.332;2023-04-03T08:58:55;12.88;;;8.02;;
13208;SDS011;6669;42.678;23.332;2023-04-03T09:01:27;11.68;;;8.23;;
13208;SDS011;6669;42.678;23.332;2023-04-03T09:04:01;11.18;;;7.57;;
13208;SDS011;6669;42.678;23.332;2023-04-03T09:06:31;13.23;;;8.02;;
13208;SDS011;6669;42.678;23.332;2023-04-03T09:09:04;12.20;;;8.07;;
13208;SDS011;6669;42.678;23.332;2023-04-03T09:11:44;9.73;;;7.20;;
13208;SDS011;6669;42.678;23.332;2023-04-03T09:14:21;9.65;;;7.57;;
13208;SDS011;6669;42.678;23.332;2023-04-03T09:16:59;8.90;;;7.32;;
13208;SDS011;6669;42.678;23.332;2023-04-03T09:19:32;8.20;;;6.40;;
13208;SDS011;6669;42.678;23.332;2023-04-03T09:22:11;7.72;;;6.45;;
13208;SDS011;6669;42.678;23.332;2023-04-03T09:24:44;10.55;;;6.22;;
13208;SDS011;6669;42.678;23.332;2023-04-03T09:27:15;9.50;;;6.90;;
13208;SDS011;6669;42.678;23.332;2023-04-03T09:29:43;9.10;;;5.50;;
13208;SDS011;6669;42.678;23.332;2023-04-03T09:32:18;8.93;;;5.60;;
13208;SDS011;6669;42.678;23.332;2023-04-03T09:34:49;9.02;;;5.55;;
13208;SDS011;6669;42.678;23.332;2023-04-03T09:37:49;7.15;;;4.95;;
13208;SDS011;6669;42.678;23.332;2023-04-03T09:40:29;8.75;;;5.80;;
13208;SDS011;6669;42.678;23.332;2023-04-03T09:43:26;6.57;;;5.72;;
13208;SDS011;6669;42.678;23.332;2023-04-03T09:46:15;6.65;;;5.93;;
13208;SDS011;6669;42.678;23.332;2023-04-03T09:48:51;9.68;;;6.20;;
13208;SDS011;6669;42.678;23.332;2023-04-03T09:51:34;7.70;;;6.15;;
13208;SDS011;6669;42.678;23.332;2023-04-03T09:54:23;9.95;;;5.35;;
13208;SDS011;6669;42.678;23.332;2023-04-03T09:56:54;7.60;;;5.65;;
13208;SDS011;6669;42.678;23.332;2023-04-03T09:59:24;6.68;;;5.20;;
13208;SDS011;6669;42.678;23.332;2023-04-03T10:01:59;7.13;;;6.28;;
13208;SDS011;6669;42.678;23.332;2023-04-03T10:04:36;8.38;;;6.00;;
13208;SDS011;6669;42.678;23.332;2023-04-03T10:10:01;6.60;;;4.40;;
13208;SDS011;6669;42.678;23.332;2023-04-03T10:12:47;6.97;;;4.85;;
13208;SDS011;6669;42.678;23.332;2023-04-03T10:15:19;9.35;;;6.25;;
13208;SDS011;6669;42.678;23.332;2023-04-03T10:17:52;9.68;;;6.28;;
13208;SDS011;6669;42.678;23.332;2023-04-03T10:20:33;11.27;;;6.43;;
13208;SDS011;6669;42.678;23.332;2023-04-03T10:23:14;9.32;;;5.53;;
13208;SDS011;6669;42.678;23.332;2023-04-03T10:25:48;17.05;;;5.60;;
13208;SDS011;6669;42.678;23.332;2023-04-03T10:28:28;9.77;;;5.53;;
13208;SDS011;6669;42.678;23.332;2023-04-03T10:31:05;6.85;;;4.53;;
13208;SDS011;6669;42.678;23.332;2023-04-03T10:33:45;7.10;;;5.47;;
13208;SDS011;6669;42.678;23.332;2023-04-03T10:36:25;6.78;;;4.95;;
13208;SDS011;6669;42.678;23.332;2023-04-03T10:39:03;10.23;;;4.53;;
13208;SDS011;6669;42.678;23.332;2023-04-03T10:41:44;8.38;;;4.63;;
13208;SDS011;6669;42.678;23.332;2023-04-03T10:44:40;6.43;;;4.25;;
13208;SDS011;6669;42.678;23.332;2023-04-03T10:47:20;5.80;;;4.00;;
13208;SDS011;6669;42.678;23.332;2023-04-03T10:49:54;6.57;;;3.40;;
13208;SDS011;6669;42.678;23.332;2023-04-03T10:52:29;3.90;;;2.97;;
13208;SDS011;6669;42.678;23.332;2023-04-03T10:55:09;7.13;;;3.17;;
13208;SDS011;6669;42.678;23.332;2023-04-03T10:57:52;5.05;;;2.80;;
13208;SDS011;6669;42.678;23.332;2023-04-03T11:00:26;4.15;;;2.92;;
13208;SDS011;6669;42.678;23.332;2023-04-03T11:03:05;3.70;;;3.05;;
13208;SDS011;6669;42.678;23.332;2023-04-03T11:05:39;3.75;;;2.63;;
13208;SDS011;6669;42.678;23.332;2023-04-03T11:08:12;5.00;;;2.42;;
13208;SDS011;6669;42.678;23.332;2023-04-03T11:10:49;6.25;;;2.35;;
13208;SDS011;6669;42.678;23.332;2023-04-03T11:13:20;2.53;;;2.33;;
13208;SDS011;6669;42.678;23.332;2023-04-03T11:15:52;3.70;;;2.45;;
13208;SDS011;6669;42.678;23.332;2023-04-03T11:18:25;2.30;;;2.05;;
13208;SDS011;6669;42.678;23.332;2023-04-03T11:21:00;3.28;;;2.10;;
13208;SDS011;6669;42.678;23.332;2023-04-03T11:23:32;4.00;;;1.83;;
13208;SDS011;6669;42.678;23.332;2023-04-03T11:26:15;3.35;;;1.77;;
13208;SDS011;6669;42.678;23.332;2023-04-03T11:28:50;2.95;;;2.00;;
13208;SDS011;6669;42.678;23.332;2023-04-03T11:31:25;2.00;;;1.90;;
13208;SDS011;6669;42.678;23.332;2023-04-03T11:34:06;2.85;;;2.13;;
13208;SDS011;6669;42.678;23.332;2023-04-03T11:36:43;11.32;;;6.82;;
13208;SDS011;6669;42.678;23.332;2023-04-03T11:39:17;4.72;;;2.10;;
13208;SDS011;6669;42.678;23.332;2023-04-03T11:41:50;2.97;;;2.22;;
13208;SDS011;6669;42.678;23.332;2023-04-03T11:44:36;2.53;;;2.03;;
13208;SDS011;6669;42.678;23.332;2023-04-03T11:47:06;2.13;;;1.52;;
13208;SDS011;6669;42.678;23.332;2023-04-03T11:49:56;4.60;;;2.25;;
13208;SDS011;6669;42.678;23.332;2023-04-03T11:55:44;2.80;;;2.08;;
13208;SDS011;6669;42.678;23.332;2023-04-03T11:58:22;3.13;;;2.10;;
13208;SDS011;6669;42.678;23.332;2023-04-03T12:00:59;1.83;;;1.73;;
13208;SDS011;6669;42.678;23.332;2023-04-03T12:09:27;2.40;;;2.20;;
13208;SDS011;6669;42.678;23.332;2023-04-03T12:11:59;1.83;;;1.73;;
13208;SDS011;6669;42.678;23.332;2023-04-03T12:14:29;2.00;;;1.80;;
13208;SDS011;6669;42.678;23.332;2023-04-03T12:16:57;2.87;;;2.00;;
13208;SDS011;6669;42.678;23.332;2023-04-03T12:19:33;2.20;;;2.07;;
13208;SDS011;6669;42.678;23.332;2023-04-03T12:22:15;2.20;;;2.00;;
13208;SDS011;6669;42.678;23.332;2023-04-03T12:24:47;1.63;;;1.53;;
13208;SDS011;6669;42.678;23.332;2023-04-03T12:27:33;2.20;;;2.00;;
13208;SDS011;6669;42.678;23.332;2023-04-03T12:30:17;2.80;;;1.90;;
13208;SDS011;6669;42.678;23.332;2023-04-03T12:35:51;2.80;;;2.00;;
13208;SDS011;6669;42.678;23.332;2023-04-03T12:41:38;2.10;;;1.90;;
13208;SDS011;6669;42.678;23.332;2023-04-03T12:47:19;6.33;;;4.70;;
13208;SDS011;6669;42.678;23.332;2023-04-03T12:49:51;2.73;;;2.53;;
13208;SDS011;6669;42.678;23.332;2023-04-03T12:52:30;4.60;;;2.53;;
13208;SDS011;6669;42.678;23.332;2023-04-03T12:55:04;2.73;;;2.23;;
13208;SDS011;6669;42.678;23.332;2023-04-03T12:57:41;2.40;;;2.20;;
13208;SDS011;6669;42.678;23.332;2023-04-03T13:00:29;2.90;;;2.70;;
13208;SDS011;6669;42.678;23.332;2023-04-03T13:03:01;4.30;;;2.50;;
13208;SDS011;6669;42.678;23.332;2023-04-03T13:05:31;6.37;;;3.73;;
13208;SDS011;6669;42.678;23.332;2023-04-03T13:08:03;8.03;;;3.53;;
13208;SDS011;6669;42.678;23.332;2023-04-03T13:10:35;7.30;;;3.77;;
13208;SDS011;6669;42.678;23.332;2023-04-03T13:13:15;4.20;;;3.10;;
13208;SDS011;6669;42.678;23.332;2023-04-03T13:15:44;3.97;;;3.10;;
13208;SDS011;6669;42.678;23.332;2023-04-03T13:18:25;3.30;;;3.00;;
13208;SDS011;6669;42.678;23.332;2023-04-03T13:20:59;4.37;;;3.40;;
13208;SDS011;6669;42.678;23.332;2023-04-03T13:23:32;3.30;;;3.00;;
13208;SDS011;6669;42.678;23.332;2023-04-03T13:26:04;4.93;;;3.50;;
13208;SDS011;6669;42.678;23.332;2023-04-03T13:28:34;4.30;;;2.80;;
13208;SDS011;6669;42.678;23.332;2023-04-03T13:31:04;5.00;;;3.70;;
13208;SDS011;6669;42.678;23.332;2023-04-03T13:33:36;3.87;;;3.40;;
13208;SDS011;6669;42.678;23.332;2023-04-03T13:36:06;4.13;;;3.57;;
13208;SDS011;6669;42.678;23.332;2023-04-03T13:38:43;6.27;;;5.23;;
13208;SDS011;6669;42.678;23.332;2023-04-03T13:41:24;4.23;;;3.83;;
13208;SDS011;6669;42.678;23.332;2023-04-03T13:43:56;4.70;;;3.80;;
13208;SDS011;6669;42.678;23.332;2023-04-03T13:46:41;3.60;;;3.30;;
13208;SDS011;6669;42.678;23.332;2023-04-03T13:49:19;4.33;;;3.50;;
13208;SDS011;6669;42.678;23.332;2023-04-03T13:51:49;4.07;;;3.57;;
13208;SDS011;6669;42.678;23.332;2023-04-03T13:54:33;4.20;;;3.80;;
13208;SDS011;6669;42.678;23.332;2023-04-03T13:57:10;4.13;;;3.73;;
13208;SDS011;6669;42.678;23.332;2023-04-03T13:59:40;8.73;;;7.90;;
13208;SDS011;6669;42.678;23.332;2023-04-03T14:02:14;20.67;;;17.97;;
13208;SDS011;6669;42.678;23.332;2023-04-03T14:04:46;4.00;;;3.60;;
13208;SDS011;6669;42.678;23.332;2023-04-03T14:07:19;4.37;;;3.70;;
13208;SDS011;6669;42.678;23.332;2023-04-03T14:09:47;4.90;;;3.53;;
13208;SDS011;6669;42.678;23.332;2023-04-03T14:12:18;4.20;;;3.80;;
13208;SDS011;6669;42.678;23.332;2023-04-03T14:14:57;3.90;;;3.60;;
13208;SDS011;6669;42.678;23.332;2023-04-03T14:17:26;4.83;;;4.10;;
13208;SDS011;6669;42.678;23.332;2023-04-03T14:19:55;6.23;;;4.60;;
13208;SDS011;6669;42.678;23.332;2023-04-03T14:22:24;5.43;;;3.80;;
13208;SDS011;6669;42.678;23.332;2023-04-03T14:24:55;3.63;;;3.33;;
13208;SDS011;6669;42.678;23.332;2023-04-03T14:27:26;4.17;;;3.83;;
13208;SDS011;6669;42.678;23.332;2023-04-03T14:29:56;4.67;;;3.63;;
13208;SDS011;6669;42.678;23.332;2023-04-03T14:32:26;4.00;;;3.70;;
13208;SDS011;6669;42.678;23.332;2023-04-03T14:34:54;3.90;;;3.50;;
13208;SDS011;6669;42.678;23.332;2023-04-03T14:37:24;3.53;;;3.20;;
13208;SDS011;6669;42.678;23.332;2023-04-03T14:39:55;6.17;;;3.77;;
13208;SDS011;6669;42.678;23.332;2023-04-03T14:42:26;3.43;;;3.13;;
13208;SDS011;6669;42.678;23.332;2023-04-03T14:44:57;3.23;;;2.97;;
13208;SDS011;6669;42.678;23.332;2023-04-03T14:47:26;3.10;;;2.80;;
13208;SDS011;6669;42.678;23.332;2023-04-03T14:49:58;3.63;;;3.33;;
13208;SDS011;6669;42.678;23.332;2023-04-03T14:52:28;3.83;;;3.07;;
13208;SDS011;6669;42.678;23.332;2023-04-03T14:54:58;3.43;;;3.13;;
13208;SDS011;6669;42.678;23.332;2023-04-03T14:57:28;3.27;;;2.70;;
13208;SDS011;6669;42.678;23.332;2023-04-03T14:59:57;3.37;;;3.07;;
13208;SDS011;6669;42.678;23.332;2023-04-03T15:02:28;2.60;;;2.40;;
13208;SDS011;6669;42.678;23.332;2023-04-03T15:04:58;2.13;;;2.00;;
13208;SDS011;6669;42.678;23.332;2023-04-03T15:07:30;2.70;;;2.30;;
13208;SDS011;6669;42.678;23.332;2023-04-03T15:10:02;3.00;;;2.60;;
13208;SDS011;6669;42.678;23.332;2023-04-03T15:12:38;2.47;;;2.27;;
13208;SDS011;6669;42.678;23.332;2023-04-03T15:15:07;2.10;;;2.00;;
13208;SDS011;6669;42.678;23.332;2023-04-03T15:17:37;2.43;;;2.20;;
13208;SDS011;6669;42.678;23.332;2023-04-03T15:20:10;2.70;;;2.00;;
13208;SDS011;6669;42.678;23.332;2023-04-03T15:22:40;2.57;;;2.37;;
13208;SDS011;6669;42.678;23.332;2023-04-03T15:25:09;3.13;;;2.83;;
13208;SDS011;6669;42.678;23.332;2023-04-03T15:27:39;2.67;;;2.47;;
13208;SDS011;6669;42.678;23.332;2023-04-03T15:30:10;2.67;;;2.47;;
13208;SDS011;6669;42.678;23.332;2023-04-03T15:32:44;3.20;;;2.37;;
13208;SDS011;6669;42.678;23.332;2023-04-03T15:35:12;2.53;;;2.17;;